sensor_id;sensor_type;location;lat;lon;timestamp;pressure;altitude;pressure_sealevel;temperature;humidity
24013;BME280;12220;50.194;18.948;2023-03-13T00:01:00;101402.91;;;6.43;57.67
24013;BME280;12220;50.194;18.948;2023-03-13T00:03:02;101403.72;;;6.45;57.79
24013;BME280;12220;50.194;18.948;2023-03-13T00:05:04;101410.94;;;6.46;57.82
24013;BME280;12220;50.194;18.948;2023-03-13T00:07:06;101411.94;;;6.43;58.43
24013;BME280;12220;50.194;18.948;2023-03-13T00:09:15;101411.88;;;6.45;58.38
24013;BME280;12220;50.194;18.948;2023-03-13T00:11:17;101413.66;;;6.46;58.56
24013;BME280;12220;50.194;18.948;2023-03-13T00:13:19;101410.94;;;6.46;58.87
24013;BME280;12220;50.194;18.948;2023-03-13T00:15:20;101403.61;;;6.48;58.81
24013;BME280;12220;50.194;18.948;2023-03-13T00:17:29;101398.91;;;6.52;58.91
24013;BME280;12220;50.194;18.948;2023-03-13T00:19:31;101399.92;;;6.49;59.15
24013;BME280;12220;50.194;18.948;2023-03-13T00:21:33;101398.98;;;6.50;59.24
24013;BME280;12220;50.194;18.948;2023-03-13T00:23:38;101404.36;;;6.52;59.24
24013;BME280;12220;50.194;18.948;2023-03-13T00:25:44;101391.62;;;6.52;59.50
24013;BME280;12220;50.194;18.948;2023-03-13T00:27:45;101398.77;;;6.55;59.45
24013;BME280;12220;50.194;18.948;2023-03-13T00:29:47;101401.42;;;6.56;59.40
24013;BME280;12220;50.194;18.948;2023-03-13T00:31:50;101386.01;;;6.57;59.70
24013;BME280;12220;50.194;18.948;2023-03-13T00:34:01;101380.43;;;6.60;59.75
24013;BME280;12220;50.194;18.948;2023-03-13T00:36:05;101380.50;;;6.58;59.90
24013;BME280;12220;50.194;18.948;2023-03-13T00:38:07;101368.51;;;6.62;59.65
24013;BME280;12220;50.194;18.948;2023-03-13T00:40:09;101365.68;;;6.66;59.71
24013;BME280;12220;50.194;18.948;2023-03-13T00:42:14;101360.30;;;6.64;60.25
24013;BME280;12220;50.194;18.948;2023-03-13T00:44:16;101355.87;;;6.61;60.70
24013;BME280;12220;50.194;18.948;2023-03-13T00:46:20;101363.06;;;6.62;60.97
24013;BME280;12220;50.194;18.948;2023-03-13T00:48:22;101362.19;;;6.62;60.92
24013;BME280;12220;50.194;18.948;2023-03-13T00:50:29;101357.51;;;6.66;60.87
24013;BME280;12220;50.194;18.948;2023-03-13T00:52:30;101366.48;;;6.68;60.89
24013;BME280;12220;50.194;18.948;2023-03-13T00:54:32;101364.63;;;6.68;60.99
24013;BME280;12220;50.194;18.948;2023-03-13T00:56:33;101361.03;;;6.68;61.33
24013;BME280;12220;50.194;18.948;2023-03-13T00:58:46;101356.39;;;6.70;61.47
24013;BME280;12220;50.194;18.948;2023-03-13T01:00:48;101352.66;;;6.72;61.31
24013;BME280;12220;50.194;18.948;2023-03-13T01:02:50;101351.64;;;6.75;61.12
24013;BME280;12220;50.194;18.948;2023-03-13T01:04:52;101343.34;;;6.78;61.16
24013;BME280;12220;50.194;18.948;2023-03-13T01:06:59;101344.21;;;6.78;61.52
24013;BME280;12220;50.194;18.948;2023-03-13T01:09:02;101345.99;;;6.79;61.62
24013;BME280;12220;50.194;18.948;2023-03-13T01:11:12;101344.21;;;6.78;62.35
24013;BME280;12220;50.194;18.948;2023-03-13T01:13:13;101348.65;;;6.81;61.97
24013;BME280;12220;50.194;18.948;2023-03-13T01:15:15;101353.09;;;6.84;61.92
24013;BME280;12220;50.194;18.948;2023-03-13T01:17:19;101357.58;;;6.85;62.09
24013;BME280;12220;50.194;18.948;2023-03-13T01:19:21;101354.86;;;6.85;62.12
24013;BME280;12220;50.194;18.948;2023-03-13T01:21:25;101361.03;;;6.88;62.00
24013;BME280;12220;50.194;18.948;2023-03-13T01:23:33;101353.81;;;6.87;62.52
24013;BME280;12220;50.194;18.948;2023-03-13T01:25:41;101314.43;;;6.55;62.59
24013;BME280;12220;50.194;18.948;2023-03-13T01:27:59;101369.96;;;6.92;62.49
24013;BME280;12220;50.194;18.948;2023-03-13T01:34:47;101371.70;;;6.93;62.89
24013;BME280;12220;50.194;18.948;2023-03-13T01:36:48;101155.07;;;5.67;62.64
24013;BME280;12220;50.194;18.948;2023-03-13T01:38:55;101379.73;;;6.96;62.97
24013;BME280;12220;50.194;18.948;2023-03-13T01:40:57;101381.72;;;6.92;63.50
24013;BME280;12220;50.194;18.948;2023-03-13T01:42:59;101375.34;;;6.93;63.35
24013;BME280;12220;50.194;18.948;2023-03-13T01:45:02;101375.27;;;6.95;63.37
24013;BME280;12220;50.194;18.948;2023-03-13T01:47:03;101377.92;;;6.96;63.23
24013;BME280;12220;50.194;18.948;2023-03-13T01:49:15;101381.45;;;6.98;63.35
24013;BME280;12220;50.194;18.948;2023-03-13T01:51:32;101388.66;;;7.00;63.43
24013;BME280;12220;50.194;18.948;2023-03-13T01:53:38;101364.16;;;7.00;63.50
24013;BME280;12220;50.194;18.948;2023-03-13T01:55:40;101358.57;;;7.03;63.24
24013;BME280;12220;50.194;18.948;2023-03-13T01:57:48;101370.41;;;7.02;63.46
24013;BME280;12220;50.194;18.948;2023-03-13T02:00:00;101375.85;;;7.02;63.82
24013;BME280;12220;50.194;18.948;2023-03-13T02:02:03;101369.46;;;7.03;63.65
24013;BME280;12220;50.194;18.948;2023-03-13T02:04:06;101368.52;;;7.04;63.72
24013;BME280;12220;50.194;18.948;2023-03-13T02:06:17;101372.26;;;7.01;64.23
24013;BME280;12220;50.194;18.948;2023-03-13T02:08:31;101375.85;;;7.02;64.27
24013;BME280;12220;50.194;18.948;2023-03-13T02:13:02;101379.49;;;7.02;64.71
24013;BME280;12220;50.194;18.948;2023-03-13T02:15:10;101366.81;;;7.01;65.04
24013;BME280;12220;50.194;18.948;2023-03-13T02:17:14;101367.68;;;7.02;65.02
24013;BME280;12220;50.194;18.948;2023-03-13T02:19:19;101366.88;;;7.00;64.98
24013;BME280;12220;50.194;18.948;2023-03-13T02:21:35;101369.54;;;7.01;65.16
24013;BME280;12220;50.194;18.948;2023-03-13T02:25:53;101372.88;;;7.08;64.84
24013;BME280;12220;50.194;18.948;2023-03-13T02:28:14;101388.10;;;7.12;64.76
24013;BME280;12220;50.194;18.948;2023-03-13T02:30:14;101381.70;;;7.13;65.20
24013;BME280;12220;50.194;18.948;2023-03-13T02:32:15;101394.45;;;7.12;65.14
24013;BME280;12220;50.194;18.948;2023-03-13T02:34:21;101396.27;;;7.12;65.50
24013;BME280;12220;50.194;18.948;2023-03-13T02:36:26;101399.82;;;7.14;65.29
24013;BME280;12220;50.194;18.948;2023-03-13T02:38:30;101389.88;;;7.13;65.57
24013;BME280;12220;50.194;18.948;2023-03-13T02:40:37;101394.45;;;7.12;65.69
24013;BME280;12220;50.194;18.948;2023-03-13T02:42:42;101396.16;;;7.15;65.61
24013;BME280;12220;50.194;18.948;2023-03-13T02:44:45;101398.74;;;7.18;65.50
24013;BME280;12220;50.194;18.948;2023-03-13T02:46:51;101400.55;;;7.18;65.61
24013;BME280;12220;50.194;18.948;2023-03-13T02:48:55;101397.91;;;7.16;66.04
24013;BME280;12220;50.194;18.948;2023-03-13T02:50:57;101401.46;;;7.18;65.87
24013;BME280;12220;50.194;18.948;2023-03-13T02:53:03;101402.19;;;7.22;65.74
24013;BME280;12220;50.194;18.948;2023-03-13T02:55:09;101407.64;;;7.22;65.70
24013;BME280;12220;50.194;18.948;2023-03-13T02:57:13;101403.14;;;7.21;66.37
24013;BME280;12220;50.194;18.948;2023-03-13T02:59:14;101415.08;;;7.18;66.71
24013;BME280;12220;50.194;18.948;2023-03-13T03:01:16;101413.16;;;7.20;66.49
24013;BME280;12220;50.194;18.948;2023-03-13T03:03:19;101417.73;;;7.20;66.82
24013;BME280;12220;50.194;18.948;2023-03-13T03:05:21;101412.29;;;7.20;66.63
24013;BME280;12220;50.194;18.948;2023-03-13T03:07:23;101408.73;;;7.18;66.84
24013;BME280;12220;50.194;18.948;2023-03-13T03:09:25;101398.67;;;7.20;66.57
24013;BME280;12220;50.194;18.948;2023-03-13T03:11:34;101407.56;;;7.23;66.60
24013;BME280;12220;50.194;18.948;2023-03-13T03:13:36;101399.40;;;7.23;66.46
24013;BME280;12220;50.194;18.948;2023-03-13T03:15:38;101402.12;;;7.23;66.68
24013;BME280;12220;50.194;18.948;2023-03-13T03:17:39;101413.02;;;7.23;66.84
24013;BME280;12220;50.194;18.948;2023-03-13T03:19:49;101404.91;;;7.22;67.15
24013;BME280;12220;50.194;18.948;2023-03-13T03:21:51;101406.77;;;7.21;67.09
24013;BME280;12220;50.194;18.948;2023-03-13T03:23:52;101409.49;;;7.21;67.15
24013;BME280;12220;50.194;18.948;2023-03-13T03:25:54;101414.03;;;7.21;67.00
24013;BME280;12220;50.194;18.948;2023-03-13T03:28:04;101413.09;;;7.22;66.90
24013;BME280;12220;50.194;18.948;2023-03-13T03:30:07;101411.23;;;7.22;66.90
24013;BME280;12220;50.194;18.948;2023-03-13T03:32:09;101410.29;;;7.23;66.97
24013;BME280;12220;50.194;18.948;2023-03-13T03:34:11;101410.37;;;7.22;67.19
24013;BME280;12220;50.194;18.948;2023-03-13T03:36:21;101409.49;;;7.21;67.13
24013;BME280;12220;50.194;18.948;2023-03-13T03:38:24;101411.23;;;7.22;67.06
24013;BME280;12220;50.194;18.948;2023-03-13T03:40:25;101417.59;;;7.23;66.97
24013;BME280;12220;50.194;18.948;2023-03-13T03:42:27;101411.13;;;7.25;66.93
24013;BME280;12220;50.194;18.948;2023-03-13T03:44:34;101407.50;;;7.25;67.12
24013;BME280;12220;50.194;18.948;2023-03-13T03:46:36;101412.94;;;7.25;67.15
24013;BME280;12220;50.194;18.948;2023-03-13T03:48:38;101409.35;;;7.24;67.09
24013;BME280;12220;50.194;18.948;2023-03-13T03:50:39;101401.17;;;7.24;67.21
24013;BME280;12220;50.194;18.948;2023-03-13T03:52:49;101414.80;;;7.24;67.25
24013;BME280;12220;50.194;18.948;2023-03-13T04:01:36;101405.54;;;7.28;67.35
24013;BME280;12220;50.194;18.948;2023-03-13T04:03:37;101407.35;;;7.28;67.49
24013;BME280;12220;50.194;18.948;2023-03-13T04:05:39;101408.19;;;7.30;67.33
24013;BME280;12220;50.194;18.948;2023-03-13T04:07:41;101409.06;;;7.30;67.29
24013;BME280;12220;50.194;18.948;2023-03-13T04:09:44;101401.72;;;7.32;67.44
24013;BME280;12220;50.194;18.948;2023-03-13T04:11:45;101400.74;;;7.33;67.35
24013;BME280;12220;50.194;18.948;2023-03-13T04:13:47;101395.30;;;7.33;67.41
24013;BME280;12220;50.194;18.948;2023-03-13T04:15:48;101410.70;;;7.35;67.72
24013;BME280;12220;50.194;18.948;2023-03-13T04:17:59;101410.77;;;7.33;67.89
24013;BME280;12220;50.194;18.948;2023-03-13T04:20:00;101395.37;;;7.32;67.93
24013;BME280;12220;50.194;18.948;2023-03-13T04:22:02;101391.70;;;7.33;67.75
24013;BME280;12220;50.194;18.948;2023-03-13T04:24:04;101389.77;;;7.35;67.65
24013;BME280;12220;50.194;18.948;2023-03-13T04:26:14;101394.20;;;7.38;67.64
24013;BME280;12220;50.194;18.948;2023-03-13T04:28:15;101394.20;;;7.38;67.73
24013;BME280;12220;50.194;18.948;2023-03-13T04:30:17;101388.74;;;7.38;67.96
24013;BME280;12220;50.194;18.948;2023-03-13T04:32:18;101395.08;;;7.38;68.06
24013;BME280;12220;50.194;18.948;2023-03-13T04:34:29;101395.98;;;7.39;68.08
24013;BME280;12220;50.194;18.948;2023-03-13T04:36:30;101393.40;;;7.36;68.28
24013;BME280;12220;50.194;18.948;2023-03-13T04:38:32;101394.20;;;7.38;68.09
24013;BME280;12220;50.194;18.948;2023-03-13T04:40:33;101400.52;;;7.38;68.02
24013;BME280;12220;50.194;18.948;2023-03-13T04:42:44;101394.96;;;7.41;67.91
24013;BME280;12220;50.194;18.948;2023-03-13T04:44:46;101384.93;;;7.42;67.95
24013;BME280;12220;50.194;18.948;2023-03-13T04:46:48;101381.18;;;7.44;67.83
24013;BME280;12220;50.194;18.948;2023-03-13T04:48:50;101391.04;;;7.47;67.71
24013;BME280;12220;50.194;18.948;2023-03-13T04:50:59;101373.73;;;7.48;67.72
24013;BME280;12220;50.194;18.948;2023-03-13T04:53:00;101381.04;;;7.47;67.73
24013;BME280;12220;50.194;18.948;2023-03-13T04:55:02;101391.95;;;7.47;67.96
24013;BME280;12220;50.194;18.948;2023-03-13T04:57:03;101386.42;;;7.49;67.92
24013;BME280;12220;50.194;18.948;2023-03-13T04:59:14;101390.02;;;7.49;67.85
24013;BME280;12220;50.194;18.948;2023-03-13T05:01:16;101389.07;;;7.50;67.75
24013;BME280;12220;50.194;18.948;2023-03-13T05:03:17;101388.13;;;7.52;67.74
24013;BME280;12220;50.194;18.948;2023-03-13T05:05:19;101384.50;;;7.51;67.88
24013;BME280;12220;50.194;18.948;2023-03-13T05:07:29;101381.69;;;7.53;67.79
24013;BME280;12220;50.194;18.948;2023-03-13T05:09:30;101377.30;;;7.50;67.95
24013;BME280;12220;50.194;18.948;2023-03-13T05:11:32;101382.74;;;7.50;68.07
24013;BME280;12220;50.194;18.948;2023-03-13T05:13:34;101376.38;;;7.49;68.13
24013;BME280;12220;50.194;18.948;2023-03-13T05:15:44;101382.74;;;7.50;68.11
24013;BME280;12220;50.194;18.948;2023-03-13T05:17:45;101378.30;;;7.47;68.37
24013;BME280;12220;50.194;18.948;2023-03-13T05:19:47;101374.68;;;7.47;68.24
24013;BME280;12220;50.194;18.948;2023-03-13T05:21:48;101367.34;;;7.49;68.24
24013;BME280;12220;50.194;18.948;2023-03-13T05:23:59;101375.45;;;7.50;68.37
24013;BME280;12220;50.194;18.948;2023-03-13T05:26:01;101373.66;;;7.49;68.47
24013;BME280;12220;50.194;18.948;2023-03-13T05:28:03;101373.73;;;7.48;68.54
24013;BME280;12220;50.194;18.948;2023-03-13T05:30:06;101364.61;;;7.49;68.44
24013;BME280;12220;50.194;18.948;2023-03-13T05:32:14;101371.01;;;7.48;68.64
24013;BME280;12220;50.194;18.948;2023-03-13T05:34:15;101365.41;;;7.51;68.45
24013;BME280;12220;50.194;18.948;2023-03-13T05:36:17;101368.13;;;7.51;68.62
24013;BME280;12220;50.194;18.948;2023-03-13T05:38:24;101365.15;;;7.57;68.38
24013;BME280;12220;50.194;18.948;2023-03-13T05:40:29;101387.91;;;7.56;68.46
24013;BME280;12220;50.194;18.948;2023-03-13T05:42:30;101366.89;;;7.58;68.39
24013;BME280;12220;50.194;18.948;2023-03-13T05:44:32;101369.54;;;7.60;68.39
24013;BME280;12220;50.194;18.948;2023-03-13T05:46:33;101364.02;;;7.61;68.46
24013;BME280;12220;50.194;18.948;2023-03-13T05:48:44;101376.70;;;7.62;68.56
24013;BME280;12220;50.194;18.948;2023-03-13T05:50:46;101369.46;;;7.61;68.61
24013;BME280;12220;50.194;18.948;2023-03-13T05:52:48;101376.70;;;7.62;68.61
24013;BME280;12220;50.194;18.948;2023-03-13T05:54:50;101371.10;;;7.65;68.57
24013;BME280;12220;50.194;18.948;2023-03-13T05:56:59;101362.91;;;7.65;68.68
24013;BME280;12220;50.194;18.948;2023-03-13T05:59:00;101361.81;;;7.70;68.54
24013;BME280;12220;50.194;18.948;2023-03-13T06:01:09;101358.14;;;7.71;68.50
24013;BME280;12220;50.194;18.948;2023-03-13T06:03:11;101355.26;;;7.74;68.41
24013;BME280;12220;50.194;18.948;2023-03-13T06:05:14;101349.73;;;7.75;68.48
24013;BME280;12220;50.194;18.948;2023-03-13T06:07:15;101346.94;;;7.77;68.41
24013;BME280;12220;50.194;18.948;2023-03-13T06:09:17;101350.38;;;7.80;68.36
24013;BME280;12220;50.194;18.948;2023-03-13T06:11:18;101339.40;;;7.82;68.29
24013;BME280;12220;50.194;18.948;2023-03-13T06:13:29;101334.84;;;7.82;68.41
24013;BME280;12220;50.194;18.948;2023-03-13T06:15:31;101341.09;;;7.84;68.36
24013;BME280;12220;50.194;18.948;2023-03-13T06:17:32;101333.83;;;7.85;68.29
24013;BME280;12220;50.194;18.948;2023-03-13T06:19:34;101334.77;;;7.84;68.13
24013;BME280;12220;50.194;18.948;2023-03-13T06:21:44;101350.03;;;7.88;68.15
24013;BME280;12220;50.194;18.948;2023-03-13T06:23:45;101341.84;;;7.88;68.14
24013;BME280;12220;50.194;18.948;2023-03-13T06:25:47;101339.13;;;7.88;68.12
24013;BME280;12220;50.194;18.948;2023-03-13T06:27:48;101346.39;;;7.88;68.15
24013;BME280;12220;50.194;18.948;2023-03-13T06:29:59;101342.08;;;7.83;68.26
24013;BME280;12220;50.194;18.948;2023-03-13T06:32:00;101337.66;;;7.81;68.21
24013;BME280;12220;50.194;18.948;2023-03-13T06:34:02;101338.52;;;7.81;68.24
24013;BME280;12220;50.194;18.948;2023-03-13T06:36:04;101348.71;;;7.78;68.29
24013;BME280;12220;50.194;18.948;2023-03-13T06:38:14;101354.88;;;7.81;68.24
24013;BME280;12220;50.194;18.948;2023-03-13T06:40:15;101333.07;;;7.81;68.21
24013;BME280;12220;50.194;18.948;2023-03-13T06:42:17;101354.65;;;7.86;68.11
24013;BME280;12220;50.194;18.948;2023-03-13T06:44:19;101334.54;;;7.89;68.07
24013;BME280;12220;50.194;18.948;2023-03-13T06:46:29;101345.29;;;7.92;68.06
24013;BME280;12220;50.194;18.948;2023-03-13T06:48:31;101347.78;;;7.96;68.00
24013;BME280;12220;50.194;18.948;2023-03-13T06:50:37;101338.41;;;8.02;68.04
24013;BME280;12220;50.194;18.948;2023-03-13T06:52:39;101342.59;;;8.09;68.06
24013;BME280;12220;50.194;18.948;2023-03-13T06:54:44;101333.15;;;8.16;67.96
24013;BME280;12220;50.194;18.948;2023-03-13T06:56:45;101014.54;;;6.10;67.70
24013;BME280;12220;50.194;18.948;2023-03-13T06:58:48;101335.20;;;8.30;67.58
24013;BME280;12220;50.194;18.948;2023-03-13T07:00:50;101331.27;;;8.36;67.48
24013;BME280;12220;50.194;18.948;2023-03-13T07:02:59;101331.20;;;8.37;67.25
24013;BME280;12220;50.194;18.948;2023-03-13T07:05:01;101335.58;;;8.40;67.22
24013;BME280;12220;50.194;18.948;2023-03-13T07:07:06;101333.68;;;8.42;67.11
24013;BME280;12220;50.194;18.948;2023-03-13T07:09:08;101326.32;;;8.44;67.09
24013;BME280;12220;50.194;18.948;2023-03-13T07:11:14;101328.88;;;8.47;67.09
24013;BME280;12220;50.194;18.948;2023-03-13T07:13:17;101330.48;;;8.51;67.07
24013;BME280;12220;50.194;18.948;2023-03-13T07:15:21;101322.88;;;8.58;67.10
24013;BME280;12220;50.194;18.948;2023-03-13T07:17:22;101326.96;;;8.67;67.05
24013;BME280;12220;50.194;18.948;2023-03-13T07:19:29;101321.09;;;8.75;66.94
24013;BME280;12220;50.194;18.948;2023-03-13T07:21:30;101323.65;;;8.78;66.71
24013;BME280;12220;50.194;18.948;2023-03-13T07:23:34;101325.18;;;8.83;66.53
24013;BME280;12220;50.194;18.948;2023-03-13T07:25:35;101323.01;;;8.90;66.40
24013;BME280;12220;50.194;18.948;2023-03-13T07:27:44;101321.06;;;8.92;66.29
24013;BME280;12220;50.194;18.948;2023-03-13T07:29:45;101319.94;;;8.96;66.24
24013;BME280;12220;50.194;18.948;2023-03-13T07:31:47;101313.34;;;9.00;66.18
24013;BME280;12220;50.194;18.948;2023-03-13T07:33:49;101318.81;;;9.00;66.08
24013;BME280;12220;50.194;18.948;2023-03-13T07:35:59;101307.63;;;9.05;66.00
24013;BME280;12220;50.194;18.948;2023-03-13T07:38:00;101311.06;;;9.08;66.04
24013;BME280;12220;50.194;18.948;2023-03-13T07:40:02;101299.98;;;9.12;65.99
24013;BME280;12220;50.194;18.948;2023-03-13T07:42:05;101301.42;;;9.19;65.97
24013;BME280;12220;50.194;18.948;2023-03-13T07:44:14;101294.61;;;9.26;65.94
24013;BME280;12220;50.194;18.948;2023-03-13T07:46:17;101295.16;;;9.33;65.82
24013;BME280;12220;50.194;18.948;2023-03-13T07:48:20;101294.52;;;9.12;65.83
24013;BME280;12220;50.194;18.948;2023-03-13T07:50:22;101295.45;;;9.44;65.59
24013;BME280;12220;50.194;18.948;2023-03-13T07:52:29;101297.05;;;9.48;65.51
24013;BME280;12220;50.194;18.948;2023-03-13T07:54:31;101288.58;;;9.53;65.49
24013;BME280;12220;50.194;18.948;2023-03-13T07:56:32;101283.63;;;9.59;65.42
24013;BME280;12220;50.194;18.948;2023-03-13T07:58:36;101286.98;;;9.65;65.13
24013;BME280;12220;50.194;18.948;2023-03-13T08:00:44;101289.45;;;9.69;65.14
24013;BME280;12220;50.194;18.948;2023-03-13T08:02:45;101281.88;;;9.74;64.91
24013;BME280;12220;50.194;18.948;2023-03-13T08:04:50;101277.82;;;9.82;64.86
24013;BME280;12220;50.194;18.948;2023-03-13T08:06:52;101269.16;;;9.89;64.91
24013;BME280;12220;50.194;18.948;2023-03-13T08:08:59;101273.19;;;9.98;64.89
24013;BME280;12220;50.194;18.948;2023-03-13T08:11:06;101287.50;;;10.03;64.65
24013;BME280;12220;50.194;18.948;2023-03-13T08:13:07;101288.88;;;10.10;64.33
24013;BME280;12220;50.194;18.948;2023-03-13T08:15:09;101284.70;;;10.19;64.41
24013;BME280;12220;50.194;18.948;2023-03-13T08:17:14;101287.97;;;10.26;64.19
24013;BME280;12220;50.194;18.948;2023-03-13T08:19:15;101286.90;;;10.28;63.75
24013;BME280;12220;50.194;18.948;2023-03-13T08:21:19;101282.12;;;10.32;63.39
24013;BME280;12220;50.194;18.948;2023-03-13T08:23:21;101276.23;;;10.40;63.39
24013;BME280;12220;50.194;18.948;2023-03-13T08:25:29;101273.98;;;10.46;63.48
24013;BME280;12220;50.194;18.948;2023-03-13T08:27:31;101272.82;;;10.51;63.45
24013;BME280;12220;50.194;18.948;2023-03-13T08:29:33;101262.38;;;10.57;63.48
24013;BME280;12220;50.194;18.948;2023-03-13T08:31:37;101264.63;;;10.65;63.41
24013;BME280;12220;50.194;18.948;2023-03-13T08:33:45;101266.79;;;10.74;63.37
24013;BME280;12220;50.194;18.948;2023-03-13T08:35:46;101266.43;;;10.80;63.24
24013;BME280;12220;50.194;18.948;2023-03-13T08:37:48;101265.03;;;10.88;62.93
24013;BME280;12220;50.194;18.948;2023-03-13T08:39:50;101260.16;;;10.93;62.31
24013;BME280;12220;50.194;18.948;2023-03-13T08:41:58;101257.93;;;10.99;62.30
24013;BME280;12220;50.194;18.948;2023-03-13T08:44:01;101259.46;;;11.04;61.96
24013;BME280;12220;50.194;18.948;2023-03-13T08:46:03;101250.97;;;11.08;61.74
24013;BME280;12220;50.194;18.948;2023-03-13T08:48:05;101258.69;;;11.16;61.92
24013;BME280;12220;50.194;18.948;2023-03-13T08:50:14;101254.47;;;11.25;62.04
24013;BME280;12220;50.194;18.948;2023-03-13T08:52:15;101259.55;;;11.31;61.96
24013;BME280;12220;50.194;18.948;2023-03-13T08:54:17;101259.04;;;11.39;61.70
24013;BME280;12220;50.194;18.948;2023-03-13T08:56:20;101234.75;;;11.47;61.55
24013;BME280;12220;50.194;18.948;2023-03-13T08:58:28;101248.74;;;11.57;61.12
24013;BME280;12220;50.194;18.948;2023-03-13T09:00:30;101261.17;;;11.62;61.00
24013;BME280;12220;50.194;18.948;2023-03-13T09:02:33;101245.38;;;11.66;60.41
24013;BME280;12220;50.194;18.948;2023-03-13T09:04:34;101241.87;;;11.64;59.66
24013;BME280;12220;50.194;18.948;2023-03-13T09:06:43;101243.54;;;11.66;59.60
24013;BME280;12220;50.194;18.948;2023-03-13T09:08:45;101231.24;;;11.72;59.84
24013;BME280;12220;50.194;18.948;2023-03-13T09:10:47;101226.45;;;11.76;59.79
24013;BME280;12220;50.194;18.948;2023-03-13T09:12:48;101226.60;;;11.87;60.06
24013;BME280;12220;50.194;18.948;2023-03-13T09:14:58;101224.01;;;11.98;60.33
24013;BME280;12220;50.194;18.948;2023-03-13T09:17:00;101218.79;;;12.08;60.23
24013;BME280;12220;50.194;18.948;2023-03-13T09:19:37;101216.28;;;12.18;59.89
24013;BME280;12220;50.194;18.948;2023-03-13T09:21:40;101211.05;;;12.28;59.98
24013;BME280;12220;50.194;18.948;2023-03-13T09:23:42;101211.37;;;12.36;59.59
24013;BME280;12220;50.194;18.948;2023-03-13T09:25:54;101220.06;;;12.43;59.66
24013;BME280;12220;50.194;18.948;2023-03-13T09:28:12;101206.87;;;12.48;58.90
24013;BME280;12220;50.194;18.948;2023-03-13T09:30:13;101196.56;;;12.51;58.70
24013;BME280;12220;50.194;18.948;2023-03-13T09:32:15;101198.10;;;12.55;58.30
24013;BME280;12220;50.194;18.948;2023-03-13T09:34:20;101210.42;;;12.63;58.30
24013;BME280;12220;50.194;18.948;2023-03-13T09:36:26;101201.73;;;12.69;57.73
24013;BME280;12220;50.194;18.948;2023-03-13T09:38:32;101198.76;;;12.72;56.98
24013;BME280;12220;50.194;18.948;2023-03-13T09:40:41;101201.16;;;12.77;56.45
24013;BME280;12220;50.194;18.948;2023-03-13T09:42:55;101192.59;;;12.81;56.08
24013;BME280;12220;50.194;18.948;2023-03-13T09:45:05;101196.52;;;12.90;56.60
24013;BME280;12220;50.194;18.948;2023-03-13T09:51:48;101188.38;;;13.14;55.77
24013;BME280;12220;50.194;18.948;2023-03-13T09:54:02;101198.90;;;13.20;55.54
24013;BME280;12220;50.194;18.948;2023-03-13T09:56:16;101179.23;;;13.27;54.72
24013;BME280;12220;50.194;18.948;2023-03-13T09:58:26;101179.31;;;13.38;54.37
24013;BME280;12220;50.194;18.948;2023-03-13T10:00:35;101172.23;;;13.47;54.34
24013;BME280;12220;50.194;18.948;2023-03-13T10:02:39;101176.71;;;13.60;54.23
24013;BME280;12220;50.194;18.948;2023-03-13T10:05:01;101170.36;;;13.71;53.59
24013;BME280;12220;50.194;18.948;2023-03-13T10:07:17;101180.95;;;13.89;54.10
24013;BME280;12220;50.194;18.948;2023-03-13T10:09:30;101166.74;;;13.95;52.46
24013;BME280;12220;50.194;18.948;2023-03-13T10:11:43;101159.23;;;13.97;51.90
24013;BME280;12220;50.194;18.948;2023-03-13T10:13:59;100999.92;;;12.97;51.82
24013;BME280;12220;50.194;18.948;2023-03-13T10:16:05;101153.48;;;14.00;52.15
24013;BME280;12220;50.194;18.948;2023-03-13T10:18:17;101156.47;;;13.97;51.57
24013;BME280;12220;50.194;18.948;2023-03-13T10:20:28;101139.41;;;13.92;51.25
24013;BME280;12220;50.194;18.948;2023-03-13T10:22:34;101144.30;;;13.88;51.31
24013;BME280;12220;50.194;18.948;2023-03-13T10:26:51;101148.81;;;13.89;51.65
24013;BME280;12220;50.194;18.948;2023-03-13T10:28:54;101150.43;;;13.92;51.49
24013;BME280;12220;50.194;18.948;2023-03-13T10:31:12;101135.43;;;13.96;51.15
24013;BME280;12220;50.194;18.948;2023-03-13T10:33:27;101123.06;;;14.02;50.77
24013;BME280;12220;50.194;18.948;2023-03-13T10:35:37;101125.07;;;14.00;50.81
24013;BME280;12220;50.194;18.948;2023-03-13T10:37:42;101121.30;;;14.01;50.63
24013;BME280;12220;50.194;18.948;2023-03-13T10:39:45;101132.20;;;14.02;51.08
24013;BME280;12220;50.194;18.948;2023-03-13T10:41:56;101126.06;;;13.99;51.05
24013;BME280;12220;50.194;18.948;2023-03-13T10:46:33;101115.66;;;13.91;50.84
24013;BME280;12220;50.194;18.948;2023-03-13T10:48:36;101122.41;;;13.87;50.92
24013;BME280;12220;50.194;18.948;2023-03-13T10:50:46;101126.02;;;13.87;51.33
24013;BME280;12220;50.194;18.948;2023-03-13T10:52:50;101131.02;;;13.82;51.06
24013;BME280;12220;50.194;18.948;2023-03-13T10:55:00;101109.13;;;13.81;51.22
24013;BME280;12220;50.194;18.948;2023-03-13T10:57:24;101109.63;;;13.86;51.78
24013;BME280;12220;50.194;18.948;2023-03-13T10:59:37;101103.14;;;13.87;51.56
24013;BME280;12220;50.194;18.948;2023-03-13T11:01:40;101094.88;;;13.87;51.44
24013;BME280;12220;50.194;18.948;2023-03-13T11:03:46;101095.13;;;13.84;50.92
24013;BME280;12220;50.194;18.948;2023-03-13T11:05:55;101089.38;;;13.87;51.05
24013;BME280;12220;50.194;18.948;2023-03-13T11:07:57;101090.23;;;13.87;51.20
24013;BME280;12220;50.194;18.948;2023-03-13T11:12:19;101089.24;;;13.88;51.14
24013;BME280;12220;50.194;18.948;2023-03-13T11:14:23;101069.98;;;13.88;50.84
24013;BME280;12220;50.194;18.948;2023-03-13T11:16:31;101072.61;;;13.90;50.74
24013;BME280;12220;50.194;18.948;2023-03-13T11:21:04;101057.97;;;13.89;50.59